Time;durP1;ratioP1;P1;durP2;ratioP2;P2;SDS_P1;SDS_P2;PMS_P1;PMS_P2;Temp;Humidity;BMP_temperature;BMP_pressure;BME280_temperature;BME280_humidity;BME280_pressure;Samples;Min_cycle;Max_cycle;Signal;HPM_P1;HPM_P2
2021/11/16 00:01:27;;;;;;;41.77;24.63;;;;;;;4.61;100.00;102049.97;4977170;28;20342;-83
2021/11/16 00:03:55;;;;;;;42.23;23.07;;;;;;;4.61;100.00;102055.22;4976341;28;20268;-83
2021/11/16 00:06:27;;;;;;;41.77;23.73;;;;;;;4.73;100.00;102045.06;4977169;28;20046;-84
2021/11/16 00:08:56;;;;;;;48.33;24.20;;;;;;;4.74;100.00;102056.44;4976618;28;20221;-83
2021/11/16 00:11:23;;;;;;;38.13;22.87;;;;;;;4.53;100.00;102041.91;4979846;28;20072;-83
2021/11/16 00:13:51;;;;;;;44.60;22.30;;;;;;;4.50;100.00;102052.31;4978551;28;20049;-84
2021/11/16 00:16:18;;;;;;;45.00;24.90;;;;;;;4.58;100.00;102043.78;4980071;28;20064;-83
2021/11/16 00:18:55;;;;;;;44.87;24.70;;;;;;;4.52;100.00;102042.78;4978484;28;20061;-85
2021/11/16 00:21:24;;;;;;;43.87;25.90;;;;;;;4.49;100.00;102034.84;4985268;28;20511;-84
2021/11/16 00:24:01;;;;;;;46.23;26.53;;;;;;;4.57;100.00;102036.78;4978196;28;20056;-84
2021/11/16 00:26:31;;;;;;;48.35;26.42;;;;;;;4.57;100.00;102039.41;4980181;28;20042;-84
2021/11/16 00:28:57;;;;;;;49.57;25.50;;;;;;;4.63;100.00;102032.59;4975403;28;20037;-84
2021/11/16 00:31:26;;;;;;;45.83;25.10;;;;;;;4.67;100.00;102023.09;4977567;28;20056;-84
2021/11/16 00:33:54;;;;;;;47.93;25.43;;;;;;;4.59;100.00;102024.63;4976603;28;20427;-84
2021/11/16 00:36:24;;;;;;;44.53;23.33;;;;;;;4.66;100.00;102027.44;4973633;28;20057;-84
2021/11/16 00:38:53;;;;;;;43.97;25.60;;;;;;;4.61;100.00;102033.38;4973661;28;20050;-84
2021/11/16 00:41:19;;;;;;;47.80;25.50;;;;;;;4.63;100.00;102030.00;4974790;28;20061;-84
2021/11/16 00:43:49;;;;;;;46.63;25.63;;;;;;;4.59;100.00;102035.09;4970945;28;20050;-84
2021/11/16 00:46:18;;;;;;;47.33;26.77;;;;;;;4.60;100.00;102032.50;4980721;28;20042;-84
2021/11/16 00:48:48;;;;;;;43.33;23.50;;;;;;;4.58;100.00;102033.31;4979604;28;20046;-84
2021/11/16 00:51:18;;;;;;;47.53;25.20;;;;;;;4.62;100.00;102030.81;4979705;28;20046;-84
2021/11/16 00:53:46;;;;;;;42.20;24.70;;;;;;;4.56;100.00;102033.28;4994410;28;20093;-84
2021/11/16 00:56:14;;;;;;;40.80;23.17;;;;;;;4.57;100.00;102034.16;4996231;28;20407;-84
2021/11/16 00:58:43;;;;;;;40.33;23.97;;;;;;;4.62;100.00;102029.91;4978580;28;20057;-83
2021/11/16 01:01:14;;;;;;;42.33;24.03;;;;;;;4.67;100.00;102037.06;4977064;28;20070;-85
2021/11/16 01:03:42;;;;;;;44.30;24.77;;;;;;;4.58;100.00;102033.31;4974171;28;20053;-83
2021/11/16 01:06:09;;;;;;;44.30;24.33;;;;;;;4.61;100.00;102034.28;4986032;28;20037;-83
2021/11/16 01:09:17;;;;;;;39.53;23.77;;;;;;;4.55;100.00;102022.78;4973369;28;20076;-83
2021/11/16 01:11:45;;;;;;;44.33;22.50;;;;;;;4.46;100.00;102026.94;4986076;28;20045;-83
2021/11/16 01:14:13;;;;;;;47.53;23.30;;;;;;;4.51;100.00;102020.06;4975142;28;20424;-83
2021/11/16 01:16:45;;;;;;;42.23;22.90;;;;;;;4.47;100.00;102025.19;4995871;28;20046;-82
2021/11/16 01:19:34;;;;;;;44.53;24.87;;;;;;;4.51;100.00;102022.69;4994490;28;20048;-83
2021/11/16 01:22:02;;;;;;;42.63;21.27;;;;;;;4.53;100.00;102015.75;4991728;28;20046;-83
2021/11/16 01:24:28;;;;;;;43.77;23.80;;;;;;;4.56;100.00;102014.97;4974359;28;20435;-83
2021/11/16 01:26:56;;;;;;;55.17;25.10;;;;;;;4.61;100.00;102012.44;4992939;28;20050;-83
2021/11/16 01:29:24;;;;;;;44.40;22.47;;;;;;;4.50;100.00;102010.44;4993823;28;20049;-84
2021/11/16 01:31:54;;;;;;;45.23;24.73;;;;;;;4.53;100.00;102007.91;4979108;28;20046;-83
2021/11/16 01:34:28;;;;;;;41.73;23.67;;;;;;;4.53;100.00;102002.66;4977706;28;20060;-84
2021/11/16 01:36:58;;;;;;;45.47;25.25;;;;;;;4.51;100.00;102004.38;4979103;28;20337;-83
2021/11/16 01:39:27;;;;;;;48.40;25.40;;;;;;;4.45;100.00;101996.34;4991734;28;20121;-84
2021/11/16 01:41:57;;;;;;;48.07;25.30;;;;;;;4.57;100.00;102006.25;4979266;28;20572;-83
2021/11/16 01:44:28;;;;;;;49.33;25.17;;;;;;;4.64;100.00;101995.09;4993257;28;20050;-84
2021/11/16 01:46:58;;;;;;;49.17;25.50;;;;;;;4.56;100.00;101994.03;4975141;28;20046;-84
2021/11/16 01:49:31;;;;;;;46.20;25.70;;;;;;;4.55;100.00;101983.53;4973738;28;20066;-84
2021/11/16 01:52:05;;;;;;;40.90;24.57;;;;;;;4.53;100.00;101981.72;4972707;28;20111;-84
2021/11/16 01:54:45;;;;;;;47.72;24.40;;;;;;;4.60;100.00;101974.03;4976366;28;20041;-83
2021/11/16 01:57:17;;;;;;;47.20;26.43;;;;;;;4.47;100.00;101968.50;4979852;28;20411;-84
2021/11/16 01:59:44;;;;;;;44.20;24.57;;;;;;;4.51;100.00;101972.06;4973758;28;20415;-84
2021/11/16 02:02:11;;;;;;;47.07;25.37;;;;;;;4.47;100.00;101967.63;4999050;28;20046;-84
2021/11/16 02:04:41;;;;;;;46.27;25.97;;;;;;;4.65;100.00;101972.44;4996077;28;20045;-84
2021/11/16 02:07:10;;;;;;;50.23;24.97;;;;;;;4.62;100.00;101961.88;4986110;28;20772;-84
2021/11/16 02:09:37;;;;;;;43.53;25.17;;;;;;;4.54;100.00;101951.22;4976340;28;20045;-83
2021/11/16 02:12:06;;;;;;;46.80;26.73;;;;;;;4.56;100.00;101956.50;4978361;28;20434;-84
2021/11/16 02:14:36;;;;;;;50.90;25.10;;;;;;;4.50;100.00;101947.63;4976645;28;20104;-84
2021/11/16 02:17:11;;;;;;;48.07;25.73;;;;;;;4.46;100.00;101948.44;4976987;28;20506;-83
2021/11/16 02:19:38;;;;;;;50.40;27.67;;;;;;;4.42;100.00;101951.78;4991740;28;20042;-84
2021/11/16 02:22:07;;;;;;;51.20;28.47;;;;;;;4.45;100.00;101949.25;4978283;28;20457;-83
2021/11/16 02:24:37;;;;;;;51.60;28.97;;;;;;;4.53;100.00;101950.31;4975523;28;20069;-84
2021/11/16 02:27:04;;;;;;;45.53;23.90;;;;;;;4.51;100.00;101949.41;4976937;28;20064;-83
2021/11/16 02:29:32;;;;;;;50.97;24.63;;;;;;;4.47;100.00;101939.72;4975785;28;20049;-84
2021/11/16 02:32:02;;;;;;;65.33;27.80;;;;;;;4.51;100.00;101944.16;4977893;28;20141;-84
2021/11/16 02:34:29;;;;;;;53.70;27.03;;;;;;;4.62;100.00;101935.69;4975035;28;20499;-83
2021/11/16 02:36:55;;;;;;;58.97;29.53;;;;;;;4.65;100.00;101941.91;4982000;28;20048;-83
2021/11/16 02:39:22;;;;;;;52.07;27.47;;;;;;;4.67;100.00;101936.69;5011662;28;20431;-84
2021/11/16 02:41:51;;;;;;;51.80;27.20;;;;;;;4.62;100.00;101933.97;4996672;28;20075;-83
2021/11/16 02:44:21;;;;;;;53.53;26.27;;;;;;;4.57;100.00;101939.94;4995768;28;20042;-83
2021/11/16 02:46:49;;;;;;;56.57;28.97;;;;;;;4.57;100.00;101932.97;4973154;28;20073;-82
2021/11/16 02:49:17;;;;;;;63.37;30.50;;;;;;;4.66;100.00;101934.94;4971899;28;20124;-83
2021/11/16 02:51:44;;;;;;;55.43;27.47;;;;;;;4.52;100.00;101929.34;4973387;28;20046;-82
2021/11/16 02:58:06;;;;;;;49.77;27.07;;;;;;;4.50;100.00;101920.59;4994801;28;20072;-83
2021/11/16 03:00:34;;;;;;;60.33;29.77;;;;;;;4.52;100.00;101917.16;4991423;28;20149;-82
2021/11/16 03:03:01;;;;;;;60.77;28.87;;;;;;;4.59;100.00;101918.19;4976235;28;20145;-82
2021/11/16 03:05:36;;;;;;;61.03;28.67;;;;;;;4.50;100.00;101917.97;4960097;28;20087;-81
2021/11/16 03:08:17;;;;;;;60.03;29.73;;;;;;;4.58;100.00;101912.94;4969090;28;20045;-82
2021/11/16 03:10:47;;;;;;;56.50;29.70;;;;;;;4.64;100.00;101900.88;4986501;28;20046;-82
2021/11/16 03:13:13;;;;;;;60.50;30.27;;;;;;;4.67;100.00;101897.44;4987819;28;20062;-82
2021/11/16 03:15:43;;;;;;;59.70;29.10;;;;;;;4.64;100.00;101905.22;4988366;28;20048;-82
2021/11/16 03:18:10;;;;;;;54.73;29.03;;;;;;;4.71;100.00;101894.94;4995203;28;20454;-82
2021/11/16 03:20:38;;;;;;;54.50;28.73;;;;;;;4.65;100.00;101897.41;4991425;28;20034;-82
2021/11/16 03:23:22;;;;;;;62.43;29.70;;;;;;;4.60;100.00;101896.41;4999025;28;20041;-81
2021/11/16 03:25:55;;;;;;;57.13;29.13;;;;;;;4.66;100.00;101891.31;4999889;28;20047;-82
2021/11/16 03:28:26;;;;;;;52.95;28.63;;;;;;;4.62;100.00;101893.81;4975614;28;20092;-81
2021/11/16 03:30:54;;;;;;;63.57;30.30;;;;;;;4.63;100.00;101891.25;4996503;28;20046;-83
2021/11/16 03:33:23;;;;;;;59.63;30.50;;;;;;;4.59;100.00;101896.38;4970875;28;20461;-83
2021/11/16 03:35:53;;;;;;;67.60;28.87;;;;;;;4.69;100.00;101885.25;4995499;28;20048;-83
2021/11/16 03:38:22;;;;;;;58.77;29.33;;;;;;;4.64;100.00;101885.16;4976291;28;20061;-84
2021/11/16 03:40:51;;;;;;;64.90;30.80;;;;;;;4.66;100.00;101883.47;4976817;28;20061;-84
2021/11/16 03:43:20;;;;;;;62.07;29.63;;;;;;;4.65;100.00;101867.72;4983149;28;20037;-83
2021/11/16 03:45:49;;;;;;;59.87;30.07;;;;;;;4.55;100.00;101871.88;4996802;28;20042;-84
2021/11/16 03:48:17;;;;;;;69.17;30.60;;;;;;;4.71;100.00;101870.50;4981138;28;20081;-84
2021/11/16 03:50:45;;;;;;;61.03;30.00;;;;;;;4.69;100.00;101869.56;4995816;28;20129;-84
2021/11/16 03:53:12;;;;;;;55.27;27.57;;;;;;;4.60;100.00;101857.13;4997120;28;20045;-83
2021/11/16 03:55:42;;;;;;;60.50;31.03;;;;;;;4.75;100.00;101864.47;4996370;28;20071;-83
2021/11/16 03:58:10;;;;;;;58.93;30.57;;;;;;;4.71;100.00;101857.41;4996455;28;20112;-86
2021/11/16 04:01:04;;;;;;;60.20;28.17;;;;;;;4.79;100.00;101848.88;4980768;28;20050;-84
2021/11/16 04:03:34;;;;;;;64.18;29.45;;;;;;;4.74;100.00;101853.09;4989489;28;20083;-83
2021/11/16 04:06:02;;;;;;;61.43;31.13;;;;;;;4.73;100.00;101845.22;5005015;28;20088;-83
2021/11/16 04:08:31;;;;;;;56.70;27.47;;;;;;;4.58;100.00;101850.09;4979749;28;20731;-84
2021/11/16 04:10:58;;;;;;;63.47;30.20;;;;;;;4.62;100.00;101842.34;4981441;28;20054;-84
2021/11/16 04:13:25;;;;;;;59.60;30.53;;;;;;;4.59;100.00;101837.06;4979692;28;21005;-83
2021/11/16 04:16:07;;;;;;;71.40;32.80;;;;;;;4.44;100.00;101834.97;4983135;28;20060;-84
2021/11/16 04:18:34;;;;;;;63.97;30.98;;;;;;;4.51;100.00;101833.38;4978562;28;20278;-84
2021/11/16 04:21:01;;;;;;;68.00;31.43;;;;;;;4.69;100.00;101835.53;4982256;28;20584;-83
2021/11/16 04:23:28;;;;;;;65.03;31.13;;;;;;;4.72;100.00;101833.88;4991800;28;20067;-83
2021/11/16 04:26:00;;;;;;;70.10;32.27;;;;;;;4.69;100.00;101831.16;5002253;28;20041;-85
2021/11/16 04:28:29;;;;;;;56.47;29.33;;;;;;;4.63;100.00;101835.41;5017349;28;20133;-85
2021/11/16 04:31:08;;;;;;;67.73;32.37;;;;;;;4.49;100.00;101832.47;5004760;28;20041;-83
2021/11/16 04:33:38;;;;;;;68.27;30.97;;;;;;;4.57;100.00;101824.78;5000880;28;20052;-85
2021/11/16 04:36:05;;;;;;;70.03;32.77;;;;;;;4.57;100.00;101827.41;5001450;28;20041;-84
2021/11/16 04:38:34;;;;;;;67.77;31.97;;;;;;;4.61;100.00;101829.22;4985896;28;20053;-85
2021/11/16 04:41:02;;;;;;;67.83;32.63;;;;;;;4.54;100.00;101815.16;5006978;28;20053;-83
2021/11/16 04:43:30;;;;;;;69.57;31.83;;;;;;;4.58;100.00;101821.31;4980903;28;20108;-84
2021/11/16 04:46:05;;;;;;;66.17;30.80;;;;;;;4.51;100.00;101818.56;5010632;28;20042;-84
2021/11/16 04:49:00;;;;;;;61.85;28.10;;;;;;;4.59;100.00;101820.47;4999864;28;20046;-84
2021/11/16 04:59:54;;;;;;;61.13;28.50;;;;;;;4.57;100.00;101825.69;5008425;28;20399;-84
2021/11/16 05:02:34;;;;;;;64.70;30.80;;;;;;;4.61;100.00;101831.84;5055850;23;20439;-83
2021/11/16 05:05:04;;;;;;;66.93;31.13;;;;;;;4.67;100.00;101824.16;5002411;28;20038;-83
2021/11/16 05:07:32;;;;;;;60.53;29.47;;;;;;;4.59;100.00;101831.81;5019438;28;20414;-84
2021/11/16 05:10:01;;;;;;;62.00;29.67;;;;;;;4.53;100.00;101823.81;5001451;28;20042;-84
2021/11/16 05:12:30;;;;;;;63.77;30.73;;;;;;;4.65;100.00;101820.63;4970793;28;20042;-84
2021/11/16 05:15:00;;;;;;;63.80;29.43;;;;;;;4.67;100.00;101829.38;4989953;28;20092;-83
2021/11/16 05:17:27;;;;;;;57.73;28.80;;;;;;;4.70;100.00;101813.72;4984003;28;20110;-84
2021/11/16 05:19:55;;;;;;;63.63;28.53;;;;;;;4.61;100.00;101808.28;4973082;28;20159;-84
2021/11/16 05:22:22;;;;;;;66.20;30.17;;;;;;;4.71;100.00;101811.16;4967563;28;20636;-84
2021/11/16 05:24:50;;;;;;;60.33;28.03;;;;;;;4.69;100.00;101801.50;5014250;28;20449;-85
2021/11/16 05:27:17;;;;;;;61.30;29.27;;;;;;;4.55;100.00;101798.59;5017287;28;20080;-84
2021/11/16 05:29:44;;;;;;;64.03;29.60;;;;;;;4.60;100.00;101799.56;5022222;28;20422;-83
2021/11/16 05:32:10;;;;;;;65.40;28.93;;;;;;;4.62;100.00;101803.09;5021597;28;20053;-84
2021/11/16 05:34:37;;;;;;;70.63;33.33;;;;;;;4.64;100.00;101811.88;5018759;28;20073;-83
2021/11/16 05:37:04;;;;;;;56.97;28.90;;;;;;;4.60;100.00;101811.75;5004613;28;20076;-83
2021/11/16 05:39:31;;;;;;;74.80;32.00;;;;;;;4.65;100.00;101810.16;4970819;28;20046;-82
2021/11/16 05:41:57;;;;;;;57.07;28.10;;;;;;;4.61;100.00;101814.41;4977372;28;20042;-83
2021/11/16 05:44:24;;;;;;;52.10;27.90;;;;;;;4.58;100.00;101813.47;4970873;28;20062;-82
2021/11/16 05:46:51;;;;;;;69.27;35.17;;;;;;;4.71;100.00;101813.78;4960790;28;20046;-83
2021/11/16 05:49:18;;;;;;;68.70;31.90;;;;;;;4.70;100.00;101816.34;5003857;28;20045;-82
2021/11/16 05:51:45;;;;;;;67.60;31.67;;;;;;;4.64;100.00;101814.50;5007613;28;20128;-82
2021/11/16 05:54:20;;;;;;;68.20;31.93;;;;;;;4.70;100.00;101819.84;5009914;28;20104;-83
2021/11/16 05:56:46;;;;;;;68.28;31.25;;;;;;;4.68;100.00;101816.31;5013196;28;20063;-82
2021/11/16 05:59:13;;;;;;;66.73;32.40;;;;;;;4.67;100.00;101825.03;5012345;28;20045;-82
2021/11/16 06:01:41;;;;;;;62.63;30.23;;;;;;;4.77;100.00;101832.22;4988728;28;20129;-83
2021/11/16 06:04:08;;;;;;;61.87;31.70;;;;;;;4.76;100.00;101830.47;4974868;28;20581;-82
2021/11/16 06:06:37;;;;;;;64.53;29.43;;;;;;;4.76;100.00;101830.47;4995499;28;20058;-82
2021/11/16 06:09:06;;;;;;;72.87;31.17;;;;;;;4.70;100.00;101835.53;4991367;28;20191;-83
2021/11/16 06:11:33;;;;;;;66.20;30.57;;;;;;;4.73;100.00;101833.03;4992464;28;20060;-82
2021/11/16 06:14:00;;;;;;;67.63;32.07;;;;;;;4.79;100.00;101840.09;4994609;28;20077;-84
2021/11/16 06:16:28;;;;;;;60.03;29.97;;;;;;;4.72;100.00;101840.84;5018505;28;20510;-82
2021/11/16 06:18:59;;;;;;;73.10;33.47;;;;;;;4.68;100.00;101833.75;4994279;28;20414;-82
2021/11/16 06:21:27;;;;;;;60.77;29.43;;;;;;;4.63;100.00;101835.41;5004621;28;20054;-82
2021/11/16 06:23:53;;;;;;;71.00;34.13;;;;;;;4.73;100.00;101840.00;4989471;28;20511;-82
2021/11/16 06:26:22;;;;;;;66.73;32.07;;;;;;;4.75;100.00;101828.69;4972626;28;20054;-82
2021/11/16 06:28:48;;;;;;;70.17;32.77;;;;;;;4.88;100.00;101840.34;4979034;28;20057;-82
2021/11/16 06:31:15;;;;;;;67.60;33.27;;;;;;;4.84;100.00;101840.22;4995524;28;20526;-82
2021/11/16 06:33:42;;;;;;;70.73;32.27;;;;;;;4.78;100.00;101843.56;5003522;28;20442;-82
2021/11/16 06:36:09;;;;;;;64.13;33.03;;;;;;;4.69;100.00;101848.59;5008283;28;20092;-83
2021/11/16 06:38:36;;;;;;;77.70;33.73;;;;;;;4.71;100.00;101845.19;4989838;28;20046;-82
2021/11/16 06:41:02;;;;;;;73.33;33.67;;;;;;;4.81;100.00;101854.13;4998001;28;20141;-82
2021/11/16 06:43:32;;;;;;;71.40;32.13;;;;;;;4.79;100.00;101861.97;4990195;28;20082;-82
2021/11/16 06:46:01;;;;;;;71.77;32.13;;;;;;;4.68;100.00;101862.56;4991962;28;20100;-82
2021/11/16 06:48:29;;;;;;;72.03;32.23;;;;;;;4.64;100.00;101858.13;4988742;28;20577;-82
2021/11/16 06:50:57;;;;;;;74.20;33.87;;;;;;;4.67;100.00;101866.03;5023898;28;20491;-83
2021/11/16 06:53:28;;;;;;;71.80;31.20;;;;;;;4.66;100.00;101859.91;5005769;28;20046;-83
2021/11/16 06:55:55;;;;;;;66.03;31.73;;;;;;;4.68;100.00;101859.94;4975039;28;20057;-82
2021/11/16 06:58:22;;;;;;;64.87;30.33;;;;;;;4.66;100.00;101859.03;4989164;28;20046;-82
2021/11/16 07:00:50;;;;;;;71.00;32.67;;;;;;;4.66;100.00;101859.91;4959073;28;20050;-82
2021/11/16 07:03:18;;;;;;;70.40;34.37;;;;;;;4.65;100.00;101855.53;4973344;28;20225;-83
2021/11/16 07:05:54;;;;;;;70.60;32.93;;;;;;;4.68;100.00;101859.94;4992227;28;20078;-82
2021/11/16 07:08:40;;;;;;;66.50;31.23;;;;;;;4.68;100.00;101847.72;4984984;28;20133;-82
2021/11/16 07:11:21;;;;;;;77.37;36.03;;;;;;;4.79;100.00;101845.34;4992938;28;20073;-82
2021/11/16 07:14:06;;;;;;;73.93;33.67;;;;;;;4.82;100.00;101848.03;4993123;28;20052;-82
2021/11/16 07:16:44;;;;;;;76.40;34.05;;;;;;;4.91;100.00;101849.97;4994571;28;20104;-82
2021/11/16 07:19:12;;;;;;;72.80;34.40;;;;;;;4.87;100.00;101849.00;4993058;28;20490;-82
2021/11/16 07:21:49;;;;;;;67.20;32.40;;;;;;;4.87;100.00;101850.75;4995321;28;20069;-83
2021/11/16 07:24:21;;;;;;;71.77;33.67;;;;;;;4.94;100.00;101850.03;5009468;28;20048;-83
2021/11/16 07:27:07;;;;;;;73.47;32.73;;;;;;;4.87;100.00;101859.47;4994532;28;20054;-82
2021/11/16 07:30:02;;;;;;;68.87;33.50;;;;;;;4.85;100.00;101860.31;4973912;28;20038;-82
2021/11/16 07:32:41;;;;;;;69.25;31.98;;;;;;;4.88;100.00;101850.81;4975608;28;20054;-81
2021/11/16 07:35:08;;;;;;;79.07;33.90;;;;;;;4.95;100.00;101847.44;4973975;28;20053;-82
2021/11/16 07:37:40;;;;;;;70.23;30.63;;;;;;;4.96;100.00;101857.09;4975515;28;20054;-82
2021/11/16 07:40:10;;;;;;;73.17;33.87;;;;;;;4.97;100.00;101855.34;4991278;28;20065;-82
2021/11/16 07:42:57;;;;;;;72.60;31.80;;;;;;;4.97;100.00;101857.97;4997414;28;20058;-83
2021/11/16 07:45:27;;;;;;;73.40;33.27;;;;;;;4.97;100.00;101856.25;5006649;28;20133;-83
2021/11/16 07:47:56;;;;;;;66.67;32.93;;;;;;;4.90;100.00;101849.09;5007700;28;20084;-83
2021/11/16 07:50:28;;;;;;;68.03;32.90;;;;;;;4.96;100.00;101859.72;5001881;28;20523;-82
2021/11/16 07:53:08;;;;;;;72.00;33.27;;;;;;;5.01;100.00;101847.59;4994980;28;20112;-82
2021/11/16 07:55:36;;;;;;;72.77;33.60;;;;;;;5.01;100.00;101849.31;5018148;28;20045;-83
2021/11/16 07:58:08;;;;;;;65.87;30.60;;;;;;;4.93;100.00;101856.13;4983914;28;20510;-82
2021/11/16 08:00:38;;;;;;;62.27;30.70;;;;;;;4.99;100.00;101851.03;4993679;28;20073;-82
2021/11/16 08:03:13;;;;;;;68.83;31.90;;;;;;;4.97;100.00;101851.00;4990590;28;20475;-83
2021/11/16 08:05:45;;;;;;;64.67;31.37;;;;;;;5.03;100.00;101845.88;4958953;28;20054;-82
2021/11/16 08:08:38;;;;;;;69.93;30.67;;;;;;;4.98;100.00;101844.91;4973807;28;20042;-82
2021/11/16 08:14:11;;;;;;;72.10;31.05;;;;;;;4.95;100.00;101849.19;4988513;28;20053;-81
2021/11/16 08:16:55;;;;;;;66.07;32.57;;;;;;;5.02;100.00;101846.72;4981265;28;20050;-82
2021/11/16 08:19:24;;;;;;;65.00;30.47;;;;;;;5.06;100.00;101845.06;4987738;28;20724;-83
2021/11/16 08:21:56;;;;;;;63.27;32.13;;;;;;;5.03;100.00;101851.09;4974072;28;20050;-82
2021/11/16 08:24:34;;;;;;;65.73;31.40;;;;;;;5.00;100.00;101845.81;4988186;28;20077;-82
2021/11/16 08:27:03;;;;;;;63.03;30.00;;;;;;;5.02;100.00;101840.59;4989509;28;20050;-82
2021/11/16 08:29:32;;;;;;;67.00;29.33;;;;;;;4.96;100.00;101849.25;4971000;28;20042;-83
2021/11/16 08:32:16;;;;;;;70.27;30.90;;;;;;;4.94;100.00;101850.03;4990985;28;20085;-83
2021/11/16 08:34:49;;;;;;;61.63;29.95;;;;;;;4.94;100.00;101847.41;4992581;28;20050;-83
2021/11/16 08:37:17;;;;;;;63.23;28.97;;;;;;;4.94;100.00;101844.78;4993503;28;20050;-82
2021/11/16 08:39:56;;;;;;;65.93;29.60;;;;;;;4.99;100.00;101846.69;4999710;28;20071;-82
2021/11/16 08:42:29;;;;;;;65.50;29.17;;;;;;;5.07;100.00;101845.09;4985438;28;20089;-83
2021/11/16 08:45:03;;;;;;;61.00;29.88;;;;;;;5.10;100.00;101852.13;4968408;28;20110;-82
2021/11/16 08:47:43;;;;;;;54.55;27.75;;;;;;;5.06;100.00;101845.06;4994013;28;20050;-82
2021/11/16 08:50:34;;;;;;;60.33;28.17;;;;;;;5.05;100.00;101857.28;5008164;28;20610;-83
2021/11/16 08:53:04;;;;;;;56.73;27.47;;;;;;;4.98;100.00;101855.38;5009869;28;20050;-82
2021/11/16 08:55:37;;;;;;;57.97;27.37;;;;;;;4.98;100.00;101857.13;4988876;28;20053;-83
2021/11/16 08:58:13;;;;;;;58.45;27.45;;;;;;;4.94;100.00;101861.38;4973299;28;20097;-82
2021/11/16 09:00:44;;;;;;;59.90;29.13;;;;;;;4.95;100.00;101860.53;4973353;28;20045;-82
2021/11/16 09:03:13;;;;;;;60.20;27.27;;;;;;;4.95;100.00;101857.91;4967759;28;20042;-83
2021/11/16 09:05:45;;;;;;;58.17;28.27;;;;;;;5.01;100.00;101846.69;4992982;28;20045;-82
2021/11/16 09:08:31;;;;;;;57.00;26.70;;;;;;;5.08;100.00;101832.88;4992904;28;20042;-82
2021/11/16 09:10:59;;;;;;;50.73;24.27;;;;;;;5.10;100.00;101825.94;4993875;28;20038;-82
2021/11/16 09:13:28;;;;;;;45.57;22.57;;;;;;;5.05;100.00;101822.34;5007308;28;20100;-83
2021/11/16 09:16:02;;;;;;;48.27;22.87;;;;;;;5.04;100.00;101816.25;4993207;28;20053;-82
2021/11/16 09:18:42;;;;;;;43.42;21.70;;;;;;;5.05;100.00;101819.75;4991295;28;20454;-82
2021/11/16 09:21:14;;;;;;;41.30;20.97;;;;;;;5.02;100.00;101817.91;4992915;28;20125;-83
2021/11/16 09:23:51;;;;;;;50.33;22.23;;;;;;;5.06;100.00;101814.53;4991664;28;20561;-83
2021/11/16 09:26:25;;;;;;;43.00;23.23;;;;;;;5.13;100.00;101812.00;4993004;28;20058;-83
2021/11/16 09:28:54;;;;;;;43.67;21.87;;;;;;;5.12;100.00;101810.25;4992046;28;20509;-84
2021/11/16 09:31:24;;;;;;;45.10;22.40;;;;;;;5.15;100.00;101803.34;4995834;28;20046;-82
2021/11/16 09:33:53;;;;;;;49.07;23.87;;;;;;;5.31;100.00;101802.81;4985180;28;20153;-82
2021/11/16 09:36:37;;;;;;;48.10;24.10;;;;;;;5.26;100.00;101807.06;4976841;28;20042;-82
2021/11/16 09:39:09;;;;;;;44.25;22.58;;;;;;;5.29;100.00;101809.72;4988042;28;20046;-82
2021/11/16 09:41:38;;;;;;;59.83;25.90;;;;;;;5.32;100.00;101793.19;4973155;28;20628;-83
2021/11/16 09:44:09;;;;;;;50.60;25.40;;;;;;;5.41;100.00;101789.88;4996016;28;20045;-83
2021/11/16 09:46:46;;;;;;;48.37;21.90;;;;;;;5.30;100.00;101785.31;4988088;28;20770;-83
2021/11/16 09:49:16;;;;;;;53.23;22.83;;;;;;;5.38;100.00;101780.19;5005364;28;20049;-82
2021/11/16 09:51:54;;;;;;;47.03;22.87;;;;;;;5.43;100.00;101782.91;4998979;28;20624;-82
2021/11/16 09:54:21;;;;;;;45.97;21.83;;;;;;;5.47;100.00;101779.50;5007270;28;20141;-83
2021/11/16 09:57:01;;;;;;;47.87;22.23;;;;;;;5.53;100.00;101775.22;5009060;28;20045;-82
2021/11/16 09:59:28;;;;;;;46.33;22.93;;;;;;;5.68;100.00;101766.75;5010778;28;20050;-82
2021/11/16 10:01:55;;;;;;;41.07;21.90;;;;;;;5.75;100.00;101770.38;5012890;28;20430;-82
2021/11/16 10:04:30;;;;;;;48.87;22.40;;;;;;;5.85;100.00;101764.44;5012032;28;20114;-82
2021/11/16 10:06:57;;;;;;;46.07;23.43;;;;;;;5.82;100.00;101762.66;5041764;28;20055;-83
2021/11/16 10:09:24;;;;;;;44.30;21.33;;;;;;;5.74;100.00;101763.38;5012914;28;20073;-84
2021/11/16 10:11:55;;;;;;;43.33;21.90;;;;;;;5.69;100.00;101772.88;5003841;28;20049;-83
2021/11/16 10:14:22;;;;;;;45.03;21.10;;;;;;;5.70;100.00;101767.66;4996928;28;20388;-83
2021/11/16 10:16:50;;;;;;;46.30;21.87;;;;;;;5.80;100.00;101760.81;4996721;28;20662;-83
2021/11/16 10:19:37;;;;;;;44.13;22.97;;;;;;;5.92;100.00;101753.22;4995769;28;20066;-83
2021/11/16 10:22:09;;;;;;;44.77;23.97;;;;;;;6.06;100.00;101751.69;4982383;28;20049;-83
2021/11/16 10:24:36;;;;;;;45.33;24.93;;;;;;;6.07;100.00;101745.59;5016617;28;20077;-84
2021/11/16 10:27:22;;;;;;;38.03;19.93;;;;;;;6.27;100.00;101745.00;5003472;28;20351;-82
2021/11/16 10:30:22;;;;;;;38.40;20.30;;;;;;;6.21;100.00;101754.53;5017908;28;20100;-81
2021/11/16 10:33:08;;;;;;;42.43;20.87;;;;;;;6.13;100.00;101753.53;4984305;28;20525;-82
2021/11/16 10:35:59;;;;;;;43.73;20.80;;;;;;;6.11;100.00;101752.63;5005438;28;20566;-81
2021/11/16 10:38:28;;;;;;;40.37;20.90;;;;;;;6.20;100.00;101754.50;4993161;28;20544;-82
2021/11/16 10:40:57;;;;;;;42.57;19.67;;;;;;;6.27;100.00;101756.38;4992229;28;20037;-81
2021/11/16 10:43:37;;;;;;;37.47;20.20;;;;;;;6.14;100.00;101757.94;4990324;28;20103;-81
2021/11/16 10:46:06;;;;;;;36.00;20.10;;;;;;;6.18;100.00;101748.38;5026084;28;20479;-81
2021/11/16 10:48:34;;;;;;;43.77;20.97;;;;;;;6.04;100.00;101748.16;5009518;28;20045;-82
2021/11/16 10:51:09;;;;;;;41.03;20.87;;;;;;;6.13;100.00;101742.16;5003772;28;20139;-82
2021/11/16 10:53:37;;;;;;;41.73;21.80;;;;;;;6.09;100.00;101749.13;4983949;28;20066;-83
2021/11/16 10:56:07;;;;;;;39.47;19.30;;;;;;;6.27;100.00;101750.25;4974418;28;20045;-82
2021/11/16 10:58:40;;;;;;;36.83;18.07;;;;;;;6.17;100.00;101736.13;4972679;28;20050;-83
2021/11/16 11:01:12;;;;;;;35.57;19.53;;;;;;;6.18;100.00;101732.63;4973292;28;20105;-82
2021/11/16 11:03:44;;;;;;;40.30;20.70;;;;;;;6.17;100.00;101737.00;4977579;28;20041;-83
2021/11/16 11:06:22;;;;;;;36.77;20.17;;;;;;;6.23;100.00;101738.84;4990708;28;20053;-84
2021/11/16 11:08:50;;;;;;;36.67;18.80;;;;;;;6.21;100.00;101730.03;4979587;28;20054;-85
2021/11/16 11:11:29;;;;;;;38.80;20.83;;;;;;;6.24;100.00;101735.34;4993177;28;20418;-83
2021/11/16 11:14:11;;;;;;;38.67;20.87;;;;;;;6.28;100.00;101720.50;4993774;28;20096;-83
2021/11/16 11:16:54;;;;;;;39.93;21.47;;;;;;;6.40;100.00;101718.06;5003465;28;20072;-83
2021/11/16 11:19:42;;;;;;;37.03;18.90;;;;;;;6.38;100.00;101723.28;4956043;28;20054;-83
2021/11/16 11:30:01;;;;;;;34.50;16.77;;;;;;;6.22;100.00;101695.06;4992043;28;20129;-84
2021/11/16 11:32:39;;;;;;;35.63;20.13;;;;;;;6.31;100.00;101692.59;4981550;28;20053;-83
2021/11/16 11:35:10;;;;;;;37.00;19.43;;;;;;;6.34;100.00;101691.75;4997839;28;20048;-84
2021/11/16 11:37:49;;;;;;;38.17;19.03;;;;;;;6.31;100.00;101689.09;5030242;28;20057;-83
2021/11/16 11:40:27;;;;;;;36.87;20.57;;;;;;;6.36;100.00;101700.50;4990188;28;20038;-83
2021/11/16 11:43:00;;;;;;;36.47;19.47;;;;;;;6.41;100.00;101690.97;4975311;28;20523;-84
2021/11/16 11:45:29;;;;;;;35.17;20.53;;;;;;;6.47;100.00;101686.69;4958620;28;20427;-83
2021/11/16 11:47:59;;;;;;;33.47;19.00;;;;;;;6.42;100.00;101680.47;4975816;28;20575;-84
2021/11/16 11:50:43;;;;;;;36.97;20.17;;;;;;;6.42;100.00;101679.59;4977242;28;20042;-83
2021/11/16 11:53:18;;;;;;;40.47;19.70;;;;;;;6.45;100.00;101679.63;4995372;28;20046;-83